Time;durP1;ratioP1;P1;durP2;ratioP2;P2;SDS_P1;SDS_P2;PMS_P1;PMS_P2;Temp;Humidity;BMP_temperature;BMP_pressure;BME280_temperature;BME280_humidity;BME280_pressure;Samples;Min_cycle;Max_cycle;Signal;HPM_P1;HPM_P2
2022/02/16 00:01:59;;;;;;;39.05;19.87;;;;;;;2.69;80.31;99811.50;2145747;82;21018;-86
2022/02/16 00:05:01;;;;;;;40.58;20.95;;;;;;;2.74;80.03;99811.62;2144208;82;21053;-86
2022/02/16 00:08:04;;;;;;;37.78;20.52;;;;;;;2.75;79.80;99814.58;2138393;82;21570;-86
2022/02/16 00:11:05;;;;;;;46.48;22.48;;;;;;;2.76;79.48;99809.23;2138644;82;21011;-88
2022/02/16 00:14:06;;;;;;;38.50;21.62;;;;;;;2.76;79.52;99806.61;2091641;84;21480;-88
2022/02/16 00:17:08;;;;;;;40.70;20.88;;;;;;;2.75;79.39;99812.78;2106263;83;21047;-87
2022/02/16 00:20:12;;;;;;;40.25;21.93;;;;;;;2.75;79.25;99813.27;2138864;83;21165;-86
2022/02/16 00:23:13;;;;;;;45.83;23.15;;;;;;;2.76;79.29;99820.16;2142983;83;21144;-86
2022/02/16 00:26:15;;;;;;;46.30;22.02;;;;;;;2.73;79.16;99806.83;2144392;82;21012;-87
2022/02/16 00:29:16;;;;;;;34.18;18.70;;;;;;;2.70;79.01;99813.62;2113882;83;21082;-87
2022/02/16 00:32:17;;;;;;;32.38;18.92;;;;;;;2.62;78.85;99807.72;2110921;83;21033;-89
2022/02/16 00:35:19;;;;;;;39.50;20.35;;;;;;;2.53;78.71;99808.44;2111838;83;21514;-88
2022/02/16 00:38:20;;;;;;;38.23;20.85;;;;;;;2.49;78.89;99800.48;2109343;84;20966;-88
2022/02/16 00:41:21;;;;;;;36.73;20.92;;;;;;;2.44;78.74;99796.09;2106235;84;21018;-88
2022/02/16 00:44:23;;;;;;;41.58;22.95;;;;;;;2.36;78.62;99797.17;2138037;83;21507;-86
2022/02/16 00:47:24;;;;;;;38.48;22.10;;;;;;;2.30;78.74;99802.90;2138553;82;21011;-87
2022/02/16 00:50:26;;;;;;;50.92;26.23;;;;;;;2.11;78.51;99809.60;2143152;82;21500;-87
2022/02/16 00:53:27;;;;;;;42.88;22.80;;;;;;;1.91;78.38;99811.13;2142662;83;20973;-86
2022/02/16 00:56:29;;;;;;;43.40;23.87;;;;;;;1.74;78.33;99804.58;2140897;83;21173;-87
2022/02/16 00:59:31;;;;;;;43.55;22.90;;;;;;;1.66;78.98;99807.42;2141295;83;21502;-87
2022/02/16 01:02:34;;;;;;;39.60;21.60;;;;;;;1.60;78.87;99807.89;2135398;83;21028;-87
2022/02/16 01:05:36;;;;;;;43.52;21.65;;;;;;;1.53;78.82;99807.54;2141112;83;21814;-86
2022/02/16 01:08:38;;;;;;;45.10;23.70;;;;;;;1.48;78.86;99821.44;2137867;83;21070;-84
2022/02/16 01:11:39;;;;;;;43.75;24.05;;;;;;;1.42;79.20;99824.52;2141914;83;21000;-87
2022/02/16 01:14:41;;;;;;;40.35;21.95;;;;;;;1.34;79.41;99818.06;2147434;82;21596;-85
2022/02/16 01:17:47;;;;;;;46.00;21.75;;;;;;;1.21;79.56;99812.56;2138132;82;21034;-86
2022/02/16 01:20:51;;;;;;;42.10;22.20;;;;;;;1.09;79.48;99811.70;2133477;83;21019;-88
2022/02/16 01:23:53;;;;;;;38.73;21.37;;;;;;;1.09;79.69;99809.09;2132533;83;21137;-86
2022/02/16 01:26:54;;;;;;;46.28;22.93;;;;;;;1.05;79.65;99803.26;2107031;84;21042;-84
2022/02/16 01:29:57;;;;;;;39.45;21.20;;;;;;;1.06;79.86;99798.38;2111192;84;21607;-89
2022/02/16 01:33:03;;;;;;;37.70;21.68;;;;;;;1.10;79.88;99797.70;2110496;84;21093;-85
2022/02/16 01:36:07;;;;;;;40.12;21.40;;;;;;;1.15;79.86;99787.72;2114643;84;21625;-87
2022/02/16 01:39:09;;;;;;;40.60;22.45;;;;;;;1.20;79.97;99784.77;2136178;82;21066;-87
2022/02/16 01:42:17;;;;;;;41.90;23.25;;;;;;;1.22;79.91;99785.02;2142433;83;21025;-86
2022/02/16 01:45:28;;;;;;;44.05;23.07;;;;;;;1.24;79.83;99783.12;2139542;83;22581;-88
2022/02/16 01:48:29;;;;;;;42.93;23.45;;;;;;;1.14;79.64;99775.61;2137347;83;21063;-87
2022/02/16 01:51:31;;;;;;;38.85;21.62;;;;;;;1.10;79.91;99769.78;2140238;83;21058;-88
2022/02/16 01:54:33;;;;;;;41.23;23.18;;;;;;;1.10;79.54;99763.73;2138801;82;21497;-85
2022/02/16 01:57:34;;;;;;;40.80;22.58;;;;;;;1.06;79.79;99755.27;2139875;83;21051;-88
2022/02/16 02:00:40;;;;;;;50.95;27.05;;;;;;;1.05;80.04;99750.17;2143960;82;20985;-86
2022/02/16 02:03:41;;;;;;;44.63;24.02;;;;;;;1.02;80.03;99748.63;2139825;83;21544;-86
2022/02/16 02:06:45;;;;;;;42.43;25.57;;;;;;;0.97;80.07;99744.69;2146002;82;21697;-87
2022/02/16 02:09:48;;;;;;;48.92;25.88;;;;;;;0.93;80.23;99742.78;2137998;83;21577;-87
2022/02/16 02:12:54;;;;;;;40.83;22.13;;;;;;;0.94;80.51;99741.00;2108080;84;21015;-85
2022/02/16 02:15:57;;;;;;;38.92;22.17;;;;;;;0.95;80.71;99733.03;2112384;84;21034;-87
2022/02/16 02:19:04;;;;;;;33.55;19.85;;;;;;;1.02;80.96;99729.02;2106657;84;21118;-86
2022/02/16 02:22:05;;;;;;;34.15;20.92;;;;;;;1.14;81.13;99723.34;2136082;82;21070;-87
2022/02/16 02:25:07;;;;;;;36.95;19.40;;;;;;;1.27;81.23;99719.34;2131943;82;21084;-87
2022/02/16 02:28:10;;;;;;;37.33;20.77;;;;;;;1.34;81.36;99712.67;2105499;84;21035;-87
2022/02/16 02:31:11;;;;;;;37.08;21.17;;;;;;;1.42;81.72;99705.08;2135211;83;21520;-86
2022/02/16 02:34:13;;;;;;;38.73;20.62;;;;;;;1.49;81.63;99704.11;2105482;84;21034;-87
2022/02/16 02:37:15;;;;;;;34.55;18.10;;;;;;;1.54;81.58;99703.29;2111457;84;21045;-87
2022/02/16 02:40:16;;;;;;;29.82;17.77;;;;;;;1.61;81.57;99701.05;2107134;84;21044;-85
2022/02/16 02:43:20;;;;;;;27.55;16.85;;;;;;;1.70;81.71;99695.09;2135420;83;21547;-87
2022/02/16 02:46:21;;;;;;;27.58;16.15;;;;;;;1.79;81.71;99687.82;2131118;83;21089;-85
2022/02/16 02:49:30;;;;;;;27.87;15.95;;;;;;;1.95;82.03;99690.06;2111252;84;21615;-85
2022/02/16 02:52:32;;;;;;;24.18;14.35;;;;;;;2.10;81.92;99692.75;2140624;83;21039;-85
2022/02/16 02:55:34;;;;;;;21.00;14.30;;;;;;;2.26;81.91;99683.68;2107197;84;21042;-86
2022/02/16 02:58:36;;;;;;;27.73;14.50;;;;;;;2.38;81.73;99680.05;2109225;84;20989;-85
2022/02/16 03:01:41;;;;;;;26.12;14.60;;;;;;;2.49;81.71;99672.16;2133438;82;21129;-84
2022/02/16 03:04:43;;;;;;;23.12;14.95;;;;;;;2.62;81.54;99681.16;2133330;83;21913;-85
2022/02/16 03:07:46;;;;;;;22.42;13.70;;;;;;;2.69;81.50;99678.37;2109647;84;21031;-84
2022/02/16 03:10:48;;;;;;;20.88;12.65;;;;;;;2.73;81.27;99667.14;2135222;82;21119;-85
2022/02/16 03:13:49;;;;;;;22.52;13.95;;;;;;;2.79;81.21;99665.32;2104817;84;21061;-86
2022/02/16 03:16:58;;;;;;;26.62;14.60;;;;;;;2.85;81.06;99677.45;2141870;83;21023;-85
2022/02/16 03:20:00;;;;;;;22.77;14.30;;;;;;;2.86;80.86;99676.97;2094729;84;21524;-87
2022/02/16 03:23:01;;;;;;;22.77;14.87;;;;;;;2.84;80.74;99675.77;2097251;84;20999;-85
2022/02/16 03:26:03;;;;;;;21.73;14.45;;;;;;;2.86;80.62;99678.28;2131490;83;21006;-85
2022/02/16 03:29:06;;;;;;;26.85;14.90;;;;;;;2.84;80.63;99663.98;2106622;84;21029;-87
2022/02/16 03:32:09;;;;;;;24.15;13.83;;;;;;;2.84;80.54;99667.91;2107914;84;21018;-87
2022/02/16 03:35:10;;;;;;;20.23;13.18;;;;;;;2.81;80.41;99658.17;2133523;83;21091;-87
2022/02/16 03:38:12;;;;;;;20.77;13.08;;;;;;;2.81;80.51;99651.13;2123031;83;20992;-87
2022/02/16 03:41:13;;;;;;;19.85;13.58;;;;;;;2.81;80.33;99656.38;2102964;84;21905;-87
2022/02/16 03:44:15;;;;;;;22.13;13.98;;;;;;;2.78;80.25;99651.88;2113054;84;21047;-86
2022/02/16 03:47:18;;;;;;;23.90;14.50;;;;;;;2.76;80.24;99654.64;2139009;83;21114;-87
2022/02/16 03:50:22;;;;;;;21.07;14.35;;;;;;;2.72;80.21;99648.47;2096228;84;21468;-87
2022/02/16 03:53:24;;;;;;;21.17;14.10;;;;;;;2.69;80.20;99648.23;2107596;84;21058;-86
2022/02/16 03:56:26;;;;;;;20.10;13.53;;;;;;;2.61;80.28;99644.94;2105128;84;21102;-86
2022/02/16 03:59:27;;;;;;;18.27;13.10;;;;;;;2.59;80.39;99639.02;2130034;83;21086;-86
2022/02/16 04:02:39;;;;;;;18.98;12.50;;;;;;;2.55;80.43;99632.84;2108720;83;21033;-87
2022/02/16 04:05:42;;;;;;;18.62;12.28;;;;;;;2.53;80.42;99622.96;2107052;84;21034;-86
2022/02/16 04:08:45;;;;;;;20.45;12.13;;;;;;;2.51;80.28;99619.66;2132983;83;21059;-87
2022/02/16 04:11:47;;;;;;;20.17;13.62;;;;;;;2.50;80.23;99620.11;2133752;82;21076;-87
2022/02/16 04:14:49;;;;;;;21.75;13.72;;;;;;;2.50;80.14;99621.91;2110522;84;21464;-87
2022/02/16 04:17:51;;;;;;;21.68;12.73;;;;;;;2.50;80.07;99616.19;2140948;83;21058;-87
2022/02/16 04:20:52;;;;;;;19.42;13.28;;;;;;;2.49;79.95;99617.16;2140477;82;21154;-86
2022/02/16 04:23:56;;;;;;;15.95;11.40;;;;;;;2.50;79.86;99616.19;2135641;83;21009;-85
2022/02/16 04:26:57;;;;;;;18.40;11.48;;;;;;;2.49;79.73;99607.16;2143165;82;20989;-86
2022/02/16 04:29:59;;;;;;;15.50;10.70;;;;;;;2.47;79.62;99612.03;2139569;83;21119;-86
2022/02/16 04:33:00;;;;;;;17.10;10.38;;;;;;;2.48;79.51;99614.20;2135101;82;21038;-86
2022/02/16 04:36:03;;;;;;;16.27;9.93;;;;;;;2.50;79.45;99608.33;2143420;83;21112;-87
2022/02/16 04:39:05;;;;;;;16.15;10.93;;;;;;;2.51;79.32;99607.39;2138977;83;21026;-87
2022/02/16 04:42:08;;;;;;;15.55;10.68;;;;;;;2.52;79.25;99605.11;2138273;82;21063;-86
2022/02/16 04:45:11;;;;;;;15.38;10.25;;;;;;;2.51;79.07;99598.23;2136601;82;21063;-88
2022/02/16 04:48:13;;;;;;;17.62;11.45;;;;;;;2.50;79.02;99593.92;2141756;83;21079;-87
2022/02/16 04:51:16;;;;;;;16.65;11.25;;;;;;;2.48;78.86;99591.94;2143255;83;21024;-87
2022/02/16 04:54:17;;;;;;;15.78;9.78;;;;;;;2.45;78.79;99595.64;2108270;84;21606;-87
2022/02/16 04:57:18;;;;;;;11.65;8.28;;;;;;;2.45;78.62;99596.13;2086449;84;20999;-85
2022/02/16 05:00:25;;;;;;;14.58;9.13;;;;;;;2.46;78.53;99591.22;2138728;83;21068;-85
2022/02/16 05:03:28;;;;;;;16.35;9.73;;;;;;;2.45;78.39;99590.88;2138431;83;21024;-85
2022/02/16 05:06:30;;;;;;;15.30;9.25;;;;;;;2.44;78.27;99580.86;2139744;83;21558;-86
2022/02/16 05:09:32;;;;;;;17.85;9.53;;;;;;;2.42;78.11;99574.09;2135840;82;20985;-86
2022/02/16 05:12:35;;;;;;;15.75;9.78;;;;;;;2.41;78.08;99576.37;2136356;83;20993;-87
2022/02/16 05:15:37;;;;;;;19.00;10.82;;;;;;;2.36;77.99;99566.27;2143641;83;21037;-86
2022/02/16 05:18:38;;;;;;;16.75;9.83;;;;;;;2.33;77.89;99559.16;2135964;83;20994;-87
2022/02/16 05:21:41;;;;;;;17.85;9.68;;;;;;;2.28;77.85;99558.25;2136806;83;21058;-87
2022/02/16 05:24:44;;;;;;;14.98;9.48;;;;;;;2.26;77.72;99557.53;2141038;83;21012;-86
2022/02/16 05:27:46;;;;;;;14.68;9.45;;;;;;;2.26;77.77;99551.48;2119948;83;21003;-87
2022/02/16 05:30:48;;;;;;;17.35;9.70;;;;;;;2.27;77.76;99552.64;2144092;83;20986;-87
2022/02/16 05:33:49;;;;;;;13.18;8.95;;;;;;;2.26;77.67;99548.38;2143090;83;21110;-87
2022/02/16 05:36:53;;;;;;;14.38;9.08;;;;;;;2.26;77.61;99555.41;2144248;82;20997;-89
2022/02/16 05:39:54;;;;;;;11.53;8.30;;;;;;;2.24;77.59;99549.80;2141282;83;21498;-88
2022/02/16 05:42:56;;;;;;;14.78;8.48;;;;;;;2.22;77.53;99546.50;2131553;83;21641;-88
2022/02/16 05:45:58;;;;;;;20.00;7.62;;;;;;;2.21;77.47;99546.61;2139449;82;21006;-86
2022/02/16 05:48:59;;;;;;;13.70;7.72;;;;;;;2.17;77.41;99546.05;2142524;83;21361;-86
2022/02/16 05:52:01;;;;;;;13.45;7.42;;;;;;;2.15;77.35;99540.09;2133120;83;21570;-87
2022/02/16 05:55:04;;;;;;;12.25;7.25;;;;;;;2.14;77.26;99533.22;2143241;83;21617;-87
2022/02/16 05:58:06;;;;;;;10.65;7.03;;;;;;;2.17;77.35;99537.37;2141227;83;21085;-87
2022/02/16 06:01:07;;;;;;;13.18;7.03;;;;;;;2.19;77.29;99528.88;2137377;82;21095;-88
2022/02/16 06:04:15;;;;;;;14.68;7.58;;;;;;;2.20;77.21;99533.18;2146613;83;21047;-88
2022/02/16 06:07:14;;;;;;;35.50;15.65;;;;;;;2.20;77.05;99524.84;2142551;83;21053;-86
2022/02/16 06:10:15;;;;;;;22.17;9.93;;;;;;;2.20;77.02;99530.56;2135363;82;21069;-88
2022/02/16 06:13:19;;;;;;;18.65;8.68;;;;;;;2.17;76.90;99519.05;2139407;83;21009;-88
2022/02/16 06:16:20;;;;;;;11.57;6.17;;;;;;;2.15;76.92;99521.77;2135584;82;21055;-89
2022/02/16 06:19:22;;;;;;;10.68;6.45;;;;;;;2.14;76.87;99512.72;2141347;83;21039;-86
2022/02/16 06:22:23;;;;;;;14.10;7.83;;;;;;;2.18;76.93;99516.28;2143716;82;21530;-87
2022/02/16 06:25:25;;;;;;;13.25;7.20;;;;;;;2.30;77.00;99514.42;2108582;84;21014;-88
2022/02/16 06:28:27;;;;;;;13.40;6.62;;;;;;;2.46;76.87;99515.28;2111772;84;21066;-87
2022/02/16 06:31:28;;;;;;;15.00;6.78;;;;;;;2.62;76.58;99507.79;2133952;83;20976;-88
2022/02/16 06:34:30;;;;;;;9.00;5.62;;;;;;;2.79;76.19;99500.25;2102588;84;21381;-87
2022/02/16 06:37:31;;;;;;;11.53;6.05;;;;;;;3.08;76.56;99493.33;2142667;83;21055;-89
2022/02/16 06:40:34;;;;;;;8.85;5.97;;;;;;;3.46;76.52;99493.04;2113384;83;21096;-87
2022/02/16 06:43:37;;;;;;;7.50;5.40;;;;;;;3.99;76.21;99485.25;2137910;83;21578;-87
2022/02/16 06:46:39;;;;;;;8.58;5.55;;;;;;;4.48;75.92;99481.56;2139783;81;21026;-87
2022/02/16 06:49:41;;;;;;;12.28;6.03;;;;;;;4.97;75.35;99478.73;2140366;83;21110;-86
2022/02/16 06:52:43;;;;;;;6.58;4.67;;;;;;;5.32;74.65;99473.19;2112463;84;21033;-88
2022/02/16 06:55:44;;;;;;;10.25;5.03;;;;;;;5.65;74.26;99475.65;2105584;84;21093;-88
2022/02/16 06:58:46;;;;;;;7.80;4.42;;;;;;;5.91;73.35;99463.03;2145034;82;21652;-88
2022/02/16 07:01:48;;;;;;;9.73;5.10;;;;;;;6.24;72.66;99460.17;2141919;83;21101;-87
2022/02/16 07:04:49;;;;;;;8.75;4.90;;;;;;;6.62;72.67;99460.24;2140596;82;21010;-87
2022/02/16 07:07:51;;;;;;;9.60;4.75;;;;;;;7.06;71.82;99455.30;2139554;83;21114;-86
2022/02/16 07:10:52;;;;;;;7.25;4.62;;;;;;;7.28;71.04;99445.95;2144073;83;21052;-87
2022/02/16 07:13:53;;;;;;;7.20;4.28;;;;;;;7.47;70.31;99442.20;2142540;83;20979;-88
2022/02/16 07:16:59;;;;;;;8.65;4.58;;;;;;;7.61;69.32;99445.02;2107694;84;21078;-88
2022/02/16 07:20:01;;;;;;;9.25;4.28;;;;;;;7.68;69.62;99429.33;2106936;84;21053;-87
2022/02/16 07:23:05;;;;;;;8.20;4.47;;;;;;;7.92;68.94;99427.19;2130463;82;20991;-89
2022/02/16 07:26:07;;;;;;;7.70;4.15;;;;;;;8.16;68.85;99432.11;2110161;84;21061;-88
2022/02/16 07:29:09;;;;;;;7.10;4.10;;;;;;;8.29;67.44;99433.74;2137603;83;21086;-87
2022/02/16 07:32:10;;;;;;;7.53;4.33;;;;;;;8.24;67.02;99431.59;2110689;84;21089;-87
2022/02/16 07:35:13;;;;;;;7.12;3.30;;;;;;;8.33;66.73;99427.11;2109888;83;21073;-87
2022/02/16 07:38:15;;;;;;;6.45;3.98;;;;;;;8.40;65.17;99434.73;2131047;83;21046;-88
2022/02/16 07:41:18;;;;;;;5.83;3.75;;;;;;;8.26;65.69;99428.80;2106259;84;21041;-88
2022/02/16 07:44:22;;;;;;;6.30;3.75;;;;;;;8.17;65.55;99431.95;2101337;84;21002;-87
2022/02/16 07:47:25;;;;;;;5.35;3.42;;;;;;;8.14;64.94;99424.83;2110283;84;21580;-88
2022/02/16 07:50:29;;;;;;;8.08;4.20;;;;;;;7.95;64.74;99426.86;2107731;84;21164;-87
2022/02/16 07:53:49;;;;;;;10.87;4.10;;;;;;;8.00;63.70;99420.58;2139459;82;21046;-88
2022/02/16 07:56:51;;;;;;;6.10;4.00;;;;;;;8.09;65.15;99412.97;2137496;82;21355;-88
2022/02/16 07:59:52;;;;;;;8.05;3.65;;;;;;;8.16;64.58;99409.64;2108404;84;21052;-88
2022/02/16 08:02:54;;;;;;;7.05;3.47;;;;;;;8.15;64.08;99410.14;2132093;82;21037;-88
2022/02/16 08:05:56;;;;;;;5.72;3.55;;;;;;;8.16;62.34;99398.57;2108544;84;21054;-88
2022/02/16 08:09:00;;;;;;;6.87;3.70;;;;;;;8.24;63.86;99398.55;2134394;83;21133;-87
2022/02/16 08:12:01;;;;;;;7.83;3.87;;;;;;;8.31;62.75;99392.12;2136476;83;21074;-88
2022/02/16 08:15:04;;;;;;;7.53;4.37;;;;;;;8.33;62.44;99394.57;2095589;84;21603;-88
2022/02/16 08:18:06;;;;;;;7.80;3.98;;;;;;;8.36;63.01;99371.26;2107897;84;21806;-88
2022/02/16 08:21:08;;;;;;;7.80;4.17;;;;;;;8.77;63.23;99373.77;2135162;83;21063;-88
2022/02/16 08:24:15;;;;;;;6.55;4.37;;;;;;;9.20;62.51;99360.44;2136703;83;21045;-87
2022/02/16 08:27:15;;;;;;;6.10;4.05;;;;;;;9.62;62.50;99362.27;2105256;84;21054;-88
2022/02/16 08:30:19;;;;;;;8.08;4.55;;;;;;;9.92;61.93;99357.86;2141978;83;21039;-87
2022/02/16 08:33:21;;;;;;;5.87;3.85;;;;;;;9.97;61.14;99351.52;2134848;83;21839;-87
2022/02/16 08:36:25;;;;;;;5.30;3.52;;;;;;;9.96;61.05;99347.71;2134586;83;21615;-90
2022/02/16 08:39:27;;;;;;;5.30;3.50;;;;;;;10.03;60.53;99342.02;2138573;83;21534;-88
2022/02/16 08:42:28;;;;;;;4.17;2.87;;;;;;;10.14;59.55;99330.97;2144316;82;21095;-86
2022/02/16 08:45:30;;;;;;;5.03;3.45;;;;;;;10.15;59.10;99325.16;2140305;82;21101;-89
2022/02/16 08:48:31;;;;;;;8.63;3.67;;;;;;;10.22;59.10;99312.31;2137978;83;21030;-89
2022/02/16 08:51:33;;;;;;;7.22;3.30;;;;;;;10.23;55.65;99299.87;2111901;84;21069;-89
2022/02/16 08:54:35;;;;;;;5.75;3.62;;;;;;;10.39;58.78;99304.17;2144530;83;21008;-88
2022/02/16 08:57:39;;;;;;;3.72;3.17;;;;;;;10.60;57.81;99302.09;2104230;84;21081;-89
2022/02/16 09:00:40;;;;;;;6.35;3.92;;;;;;;10.80;56.66;99295.67;2144799;83;21045;-90
2022/02/16 09:03:42;;;;;;;5.78;4.37;;;;;;;10.92;57.51;99295.48;2144194;82;21009;-89
2022/02/16 09:07:27;;;;;;;5.58;3.37;;;;;;;11.01;56.46;99287.73;2141584;83;21090;-89
2022/02/16 09:09:47;;;;;;;4.83;2.72;;;;;;;11.12;56.97;99280.58;2140385;83;21112;-89
2022/02/16 09:12:48;;;;;;;5.75;3.00;;;;;;;11.33;56.16;99274.93;2129945;83;20991;-85
2022/02/16 09:15:50;;;;;;;5.70;2.83;;;;;;;11.15;54.58;99275.38;2140797;82;21576;-87
2022/02/16 09:18:51;;;;;;;5.55;2.95;;;;;;;11.03;55.43;99260.98;2139970;83;21124;-85
2022/02/16 09:21:53;;;;;;;6.10;2.98;;;;;;;11.02;53.30;99252.20;2144649;83;21052;-86
2022/02/16 09:24:55;;;;;;;4.62;2.75;;;;;;;9.96;54.26;99245.69;2138647;83;21022;-86
2022/02/16 09:27:56;;;;;;;3.95;2.85;;;;;;;9.96;54.26;99245.69;2142055;82;21034;-86
2022/02/16 09:30:59;;;;;;;5.47;2.67;;;;;;;10.06;55.39;99248.38;2142137;82;21008;-86
2022/02/16 09:34:01;;;;;;;5.65;2.72;;;;;;;10.38;55.10;99214.52;2111768;83;21516;-85
2022/02/16 09:37:03;;;;;;;3.62;2.30;;;;;;;10.77;55.27;99226.03;2105052;83;21079;-85
2022/02/16 09:40:06;;;;;;;4.05;2.45;;;;;;;11.10;55.03;99226.84;2108989;84;21027;-85
2022/02/16 09:43:07;;;;;;;5.80;2.45;;;;;;;11.36;52.92;99220.91;2136275;82;20995;-86
2022/02/16 09:46:08;;;;;;;5.90;2.30;;;;;;;11.39;53.90;99219.20;2140522;82;21659;-86
2022/02/16 09:49:12;;;;;;;6.25;3.85;;;;;;;11.38;52.36;99223.39;2133785;82;21025;-86
2022/02/16 09:52:14;;;;;;;6.95;4.83;;;;;;;11.22;52.91;99213.35;2141042;82;21133;-85
2022/02/16 09:55:16;;;;;;;5.83;3.50;;;;;;;11.09;52.94;99210.58;2140862;83;21046;-85
2022/02/16 09:58:18;;;;;;;4.92;2.92;;;;;;;11.12;53.70;99212.04;2137284;82;21079;-87
2022/02/16 10:01:21;;;;;;;5.40;2.70;;;;;;;11.34;53.29;99207.51;2136103;82;21004;-86
2022/02/16 10:04:25;;;;;;;4.75;3.30;;;;;;;11.06;49.79;99201.68;2135188;83;21052;-86
2022/02/16 10:07:39;;;;;;;3.87;2.87;;;;;;;10.81;52.08;99191.16;2137362;82;21043;-85
2022/02/16 10:10:33;;;;;;;6.22;3.45;;;;;;;10.94;52.51;99185.45;2140026;82;21525;-86
2022/02/16 10:13:35;;;;;;;4.37;2.87;;;;;;;11.27;52.33;99177.45;2139959;82;21003;-86
2022/02/16 10:16:37;;;;;;;3.15;2.60;;;;;;;11.60;52.57;99169.66;2140684;83;20992;-84
2022/02/16 10:19:52;;;;;;;3.83;2.40;;;;;;;11.84;51.79;99163.85;2112745;84;21551;-85
2022/02/16 10:22:56;;;;;;;6.78;3.75;;;;;;;11.76;51.47;99145.41;2110030;84;20986;-86
2022/02/16 10:25:57;;;;;;;8.20;4.50;;;;;;;11.69;51.21;99146.42;2113590;84;21065;-84
2022/02/16 10:29:00;;;;;;;3.50;2.65;;;;;;;11.72;51.52;99142.05;2110552;84;21579;-85
2022/02/16 10:32:03;;;;;;;6.03;2.87;;;;;;;11.85;50.73;99134.97;2107158;84;21066;-84
2022/02/16 10:35:05;;;;;;;11.43;5.75;;;;;;;11.88;51.85;99135.91;2111316;84;21576;-86
2022/02/16 10:38:06;;;;;;;9.80;4.83;;;;;;;11.78;51.06;99123.97;2118491;84;20998;-86
2022/02/16 10:41:08;;;;;;;7.58;4.87;;;;;;;11.76;51.12;99112.70;2116641;84;21473;-86
2022/02/16 10:44:23;;;;;;;4.95;3.08;;;;;;;11.92;51.04;99107.08;2117273;84;20962;-86
2022/02/16 10:47:25;;;;;;;4.30;2.80;;;;;;;12.01;50.54;99104.54;2114013;84;21014;-87
2022/02/16 10:50:33;;;;;;;6.70;3.25;;;;;;;11.89;50.14;99106.96;2110276;84;21005;-84
2022/02/16 10:53:35;;;;;;;5.65;3.10;;;;;;;11.67;50.38;99111.55;2112403;83;21014;-85
2022/02/16 10:56:41;;;;;;;4.75;3.12;;;;;;;11.57;50.65;99103.63;2121264;84;21034;-85
2022/02/16 10:59:43;;;;;;;7.22;3.17;;;;;;;11.52;50.00;99090.95;2110161;84;21065;-87
2022/02/16 11:02:47;;;;;;;6.42;2.70;;;;;;;11.39;50.73;99093.03;2112273;84;21035;-85
2022/02/16 11:05:50;;;;;;;3.37;2.75;;;;;;;11.20;50.25;99083.12;2111828;84;21124;-85
2022/02/16 11:08:54;;;;;;;5.60;2.52;;;;;;;10.81;50.83;99091.65;2089530;84;20987;-86
2022/02/16 11:11:58;;;;;;;5.67;2.77;;;;;;;10.53;51.50;99081.84;2119023;84;21062;-85
2022/02/16 11:15:01;;;;;;;4.72;2.65;;;;;;;9.92;52.06;99076.98;2111531;84;21600;-86
2022/02/16 11:18:14;;;;;;;3.72;2.40;;;;;;;9.61;52.42;99052.08;2106422;84;21049;-85
2022/02/16 11:21:22;;;;;;;2.98;2.37;;;;;;;9.61;52.42;99052.08;2114403;84;21077;-85
2022/02/16 11:24:37;;;;;;;4.05;2.60;;;;;;;9.53;52.61;99064.10;2104213;84;21085;-86
2022/02/16 11:27:40;;;;;;;8.15;2.67;;;;;;;9.33;52.83;99064.67;2118104;84;21264;-85
2022/02/16 11:30:48;;;;;;;4.83;2.62;;;;;;;9.21;53.22;99050.27;2090644;84;21491;-85
2022/02/16 11:34:16;;;;;;;5.33;3.10;;;;;;;9.00;53.20;99054.15;2112797;84;20975;-84
2022/02/16 11:37:35;;;;;;;7.50;2.70;;;;;;;8.84;53.69;99049.37;2108628;84;21041;-84
2022/02/16 11:40:41;;;;;;;5.20;2.40;;;;;;;8.71;54.09;99049.16;2114762;83;21029;-84
2022/02/16 11:44:02;;;;;;;4.70;2.45;;;;;;;8.64;54.57;99034.50;2111684;84;21482;-84
2022/02/16 11:47:03;;;;;;;7.50;3.10;;;;;;;8.57;54.85;99040.20;2117877;84;20994;-87
2022/02/16 11:50:19;;;;;;;4.83;2.65;;;;;;;8.47;55.05;99035.16;2113637;84;21048;-86
2022/02/16 11:53:26;;;;;;;6.45;3.08;;;;;;;8.37;55.18;99020.04;2112347;84;21004;-84
2022/02/16 11:56:33;;;;;;;4.72;2.72;;;;;;;8.33;55.45;99005.52;2116145;84;20988;-83
2022/02/16 11:59:57;;;;;;;5.00;2.83;;;;;;;8.33;55.72;99003.39;2112006;84;21010;-84
2022/02/16 12:03:13;;;;;;;4.53;2.60;;;;;;;8.34;55.68;98977.30;2114595;84;20989;-86
2022/02/16 12:06:16;;;;;;;4.55;2.62;;;;;;;8.34;56.04;98966.22;2113123;84;20966;-84
2022/02/16 12:09:28;;;;;;;5.05;3.10;;;;;;;8.40;55.72;98933.80;2111257;84;21070;-84
2022/02/16 12:12:32;;;;;;;5.25;3.05;;;;;;;8.45;56.33;98947.81;2110012;83;21001;-85
2022/02/16 12:15:34;;;;;;;4.67;2.65;;;;;;;8.54;56.45;98948.03;2112968;84;21013;-85
2022/02/16 12:18:38;;;;;;;5.75;3.20;;;;;;;8.60;56.38;98946.48;2115108;84;21042;-85
2022/02/16 12:21:44;;;;;;;6.85;4.08;;;;;;;8.62;56.40;98925.47;2116616;84;21490;-83
2022/02/16 12:24:45;;;;;;;5.92;3.40;;;;;;;8.67;56.62;98913.84;2115001;84;21042;-85
2022/02/16 12:27:47;;;;;;;5.47;3.35;;;;;;;8.73;56.75;98904.36;2112026;83;21020;-84
2022/02/16 12:30:48;;;;;;;4.85;3.12;;;;;;;8.80;56.83;98890.69;2105976;84;21545;-85
2022/02/16 12:34:05;;;;;;;6.00;3.50;;;;;;;8.86;56.74;98876.72;2107233;84;21516;-84
2022/02/16 12:37:11;;;;;;;7.70;3.33;;;;;;;8.89;56.79;98864.44;2114396;84;21026;-84
2022/02/16 12:40:13;;;;;;;6.15;3.15;;;;;;;8.95;56.85;98857.11;2110733;84;21038;-84
2022/02/16 12:43:15;;;;;;;6.22;3.15;;;;;;;9.02;56.81;98847.09;2113854;83;21564;-85
2022/02/16 12:46:17;;;;;;;4.17;3.05;;;;;;;9.05;57.01;98850.17;2120638;84;21038;-86
2022/02/16 12:49:22;;;;;;;4.92;3.22;;;;;;;9.11;56.95;98838.02;2115807;84;21029;-84
2022/02/16 12:52:28;;;;;;;4.65;2.85;;;;;;;9.13;56.99;98834.18;2113328;84;21031;-85
2022/02/16 12:55:31;;;;;;;4.42;2.92;;;;;;;9.15;56.69;98833.98;2113542;84;20976;-85
2022/02/16 12:58:34;;;;;;;7.50;3.95;;;;;;;9.15;57.12;98826.87;2105998;84;21678;-85
2022/02/16 13:01:41;;;;;;;4.70;3.33;;;;;;;9.19;57.20;98818.05;2111528;84;21077;-84
2022/02/16 13:04:44;;;;;;;5.78;3.30;;;;;;;9.22;57.15;98803.11;2114994;84;21022;-86
2022/02/16 13:07:45;;;;;;;6.50;3.30;;;;;;;9.25;57.25;98811.18;2106083;84;21064;-86
2022/02/16 13:10:47;;;;;;;6.42;2.70;;;;;;;9.25;57.25;98800.59;2117702;84;21029;-86
2022/02/16 13:13:48;;;;;;;4.67;2.98;;;;;;;9.26;57.28;98791.63;2112492;84;21508;-86
2022/02/16 13:17:04;;;;;;;5.65;2.83;;;;;;;9.27;57.50;98776.09;2114592;84;20998;-85
2022/02/16 13:20:18;;;;;;;14.90;3.77;;;;;;;9.27;57.38;98783.52;2081563;84;21026;-86
2022/02/16 13:23:21;;;;;;;7.58;2.70;;;;;;;9.28;57.73;98775.88;2116467;84;21475;-87
2022/02/16 13:26:23;;;;;;;6.67;2.50;;;;;;;9.30;57.35;98767.25;2111425;84;21030;-85
2022/02/16 13:29:27;;;;;;;5.85;3.00;;;;;;;9.29;57.57;98767.42;2113690;84;21058;-85
2022/02/16 13:32:32;;;;;;;4.87;2.77;;;;;;;9.28;57.63;98746.77;2114741;84;21070;-84
2022/02/16 13:35:35;;;;;;;4.80;2.77;;;;;;;9.32;57.71;98740.57;2118226;84;21033;-85
2022/02/16 13:38:36;;;;;;;5.10;2.85;;;;;;;9.36;57.75;98725.95;2109593;84;21042;-85
2022/02/16 13:42:02;;;;;;;4.72;2.55;;;;;;;9.40;57.96;98713.96;2110855;84;21544;-85
2022/02/16 13:45:04;;;;;;;5.55;2.40;;;;;;;9.41;57.88;98711.64;2111573;84;20987;-85
2022/02/16 13:48:08;;;;;;;4.60;2.90;;;;;;;9.42;57.95;98696.06;2111397;82;21020;-86
2022/02/16 13:51:12;;;;;;;12.13;5.97;;;;;;;9.38;57.73;98685.05;2090415;84;20960;-86
2022/02/16 13:54:26;;;;;;;5.55;3.02;;;;;;;9.36;57.81;98684.41;2116907;84;21021;-86
2022/02/16 13:57:31;;;;;;;9.10;2.95;;;;;;;9.35;57.31;98666.91;2110418;84;21030;-86
2022/02/16 14:00:32;;;;;;;5.00;3.10;;;;;;;9.35;57.28;98675.36;2109152;84;21073;-85
2022/02/16 14:03:37;;;;;;;7.03;3.10;;;;;;;9.30;57.71;98668.50;2113455;84;21001;-85
2022/02/16 14:06:38;;;;;;;5.17;2.83;;;;;;;9.26;57.66;98657.46;2115350;83;21802;-87
2022/02/16 14:09:40;;;;;;;9.58;4.80;;;;;;;9.25;57.65;98665.10;2118097;84;21492;-84
2022/02/16 14:12:42;;;;;;;7.72;3.90;;;;;;;9.24;57.40;98645.46;2109448;84;21001;-85
2022/02/16 14:15:43;;;;;;;5.53;3.55;;;;;;;9.22;57.59;98651.45;2115195;83;21109;-85
2022/02/16 14:19:22;;;;;;;4.87;2.92;;;;;;;9.16;57.94;98647.23;2114638;84;20982;-85
2022/02/16 14:21:54;;;;;;;6.78;3.37;;;;;;;9.10;58.08;98637.42;2112008;84;21486;-85
2022/02/16 14:24:55;;;;;;;7.47;3.50;;;;;;;9.07;58.01;98642.30;2114051;84;21007;-86